Starkweather, North Dakota
Current Conditions -  °F | °C
As of 1:15 PM on Thursday 27 Nov 2014 (Local Time) from K9D7 Reporting Station
Scattered Clouds Scattered Clouds  
Wind Chill: -23°   Ceiling: Unl
Heat Index: -14°   Visibility: 10mi
Dew Point: -18°   Wind: 13mph
Humidity: 72%   Direction: 170°S
Pressure: 30.22"   Gusts: NA
Location:  48.45°N, 98.88°W
Report Text: K9D7 271915Z AUTO 17011KT 10SM SCT110 M14/M18 A3022 RMK AO2
Loading
Personal Weather Stations






























Interactive Weather Map New forecast layout! Learn more

10-Day Weather Forecast

Advertisements
Track Severe Weather on mobile